Mead, CO

10:08 PM MDT on October 25, 2014 (GMT -0600)
Boulder Muni, Boulder, CO | Change Station
CLOSE
Current Station
Airport
Location: Boulder Muni, Boulder, CO,
Elevation: 5289 ft
Nearby Weather Stations

Elev 5289 ft 40.04 °N, 105.23 °W | Updated 12 minutes ago

Clear
Clear
55 °F
Feels Like 55 °F
N
0
Wind Variable Wind from North

Today
High -- | Low -- °F
--% Chance of Precip.
Yesterday
High -- | Low -- °F
Precip. -- in
7:21 AM 6:05 PM
Waxing Crescent, 6% visible
Pressure 30.01 in
Visibility 10.0 miles
Clouds Clear
Dew Point 30 °F
Humidity 38%
Rainfall 0.00 in
Snow Depth Not available.
UV 0 out of 12
Pollen 2.90 out of 12
Ozone Good
PM2.5 Good
Flu Activity Sporadic
METAR KBDU 260356Z AUTO 00000KT 10SM CLR 13/M01 A3001 RMK AO2

More Conditions Fewer Conditions

Pressure 30.01 in
Visibility 10.0 miles
Clouds Clear
Dew Point 30 °F
Humidity 38%
Rainfall 0.00 in
Snow Depth Not available.
UV 0 out of 12
Pollen 2.90 out of 12
Ozone Good
PM2.5 Good
Flu Activity Sporadic
METAR KBDU 260356Z AUTO 00000KT 10SM CLR 13/M01 A3001 RMK AO2

More Conditions Fewer Conditions

10-Day Weather Forecast

Almanac

Astronomy

Oct. 25, 2014 Rise Set
Actual Time 7:21 AM MDT 6:05 PM MDT
Civil Twilight 6:53 AM MDT 6:33 PM MDT
Nautical Twilight 6:21 AM MDT 7:05 PM MDT
Astronomical Twilight 5:50 AM MDT 7:36 PM MDT
Moon 9:03 AM MDT (10/25) 7:30 PM MDT (10/25)
Length of Visible Light 11h 39m
Length of Day
10h 44m
Tomorrow will be 2m 27s shorter.
Waxing Crescent, 6% of the Moon is Illuminated
Oct 26
Waxing Crescent
Oct 30
First Quarter
Nov 6
Full
Nov 14
Last Quarter
Nov 22
New

Today's Extremes

State Highs State Lows

Community

WunderPhotos

Upload Photos

1,765,106 photos uploaded!

Nearby

Air Quality

  Air Quality AQ Index Pollutant
Yesterday Good
OZONE
Yesterday Good
PM2.5
Current Good
PM2.5
Current Good
OZONE
Saturday Good
PM2.5
Saturday Good
OZONE
Sunday Good
PM2.5
Sunday Good
OZONE
Monday Good
PM2.5
Monday Good
OZONE

Snow Depth

Station Depth Elevation
Copeland Lake 0 in 8600 ft
Wild Basin 5 in 9560 ft
Niwot 0 in 9910 ft
University Camp 0 in 10300 ft
Lake Eldora 0 in 9700 ft

Earthquake Activity

City Distance Mag. Time & Date
No recent earthquake activity has been reported nearby.
Minimum magnitude displayed is 2.5.

Coastal Water Temperatures

Place Temperature
No Stations Reporting

Nearby Weather Stations